createdAt,value
2019-02-18T00:00:53.153Z,63.31
2019-02-18T00:03:21.195Z,63.64
2019-02-18T00:05:48.607Z,63.77
2019-02-18T00:08:16.117Z,63.87
2019-02-18T00:10:43.514Z,63.87
2019-02-18T00:13:11.072Z,63.70
2019-02-18T00:15:38.690Z,63.50
2019-02-18T00:18:06.115Z,63.61
2019-02-18T00:20:33.794Z,63.56
2019-02-18T00:23:01.276Z,63.43
2019-02-18T00:25:28.732Z,63.38
2019-02-18T00:27:56.196Z,63.35
2019-02-18T00:30:23.592Z,63.52
2019-02-18T00:32:51.101Z,63.49
2019-02-18T00:35:18.520Z,63.72
2019-02-18T00:37:45.938Z,63.84
2019-02-18T00:40:13.344Z,63.59
2019-02-18T00:42:40.735Z,63.71
2019-02-18T00:45:10.647Z,64.17
2019-02-18T00:47:38.103Z,64.25
2019-02-18T00:50:05.554Z,64.20
2019-02-18T00:52:33.727Z,64.05
2019-02-18T00:55:01.283Z,64.19
2019-02-18T00:57:28.751Z,64.25
2019-02-18T00:59:56.154Z,64.12
2019-02-18T01:02:23.657Z,64.19
2019-02-18T01:04:52.350Z,64.45
2019-02-18T01:07:19.784Z,64.78
2019-02-18T01:09:47.200Z,64.96
2019-02-18T01:12:14.623Z,65.18
2019-02-18T01:14:42.077Z,65.45
2019-02-18T01:17:09.543Z,65.36
2019-02-18T01:19:36.948Z,65.37
2019-02-18T01:22:04.351Z,65.36
2019-02-18T01:24:31.789Z,65.35
2019-02-18T01:26:59.176Z,65.39
2019-02-18T01:29:26.574Z,65.37
2019-02-18T01:31:54.167Z,65.55
2019-02-18T01:34:21.558Z,65.53
2019-02-18T01:36:48.971Z,65.58
2019-02-18T01:39:16.416Z,65.82
2019-02-18T01:41:43.816Z,66.09
2019-02-18T01:44:11.247Z,66.31
2019-02-18T01:46:38.808Z,66.27
2019-02-18T01:49:06.872Z,66.35
2019-02-18T01:51:34.437Z,66.64
2019-02-18T01:54:01.883Z,66.76
2019-02-18T01:56:29.297Z,66.68
2019-02-18T01:58:56.779Z,66.68
2019-02-18T02:01:24.181Z,66.76
2019-02-18T02:03:51.596Z,66.86
2019-02-18T02:06:19.026Z,66.89
2019-02-18T02:08:46.499Z,67.10
2019-02-18T02:11:13.890Z,66.89
2019-02-18T02:13:41.298Z,66.66
2019-02-18T02:16:08.703Z,66.51
2019-02-18T02:18:36.125Z,66.42
2019-02-18T02:21:04.442Z,66.63
2019-02-18T02:23:31.855Z,66.67
2019-02-18T02:25:59.245Z,66.50
2019-02-18T02:28:26.755Z,66.35
2019-02-18T02:30:54.146Z,66.13
2019-02-18T02:33:21.571Z,66.02
2019-02-18T02:35:49.005Z,66.07
2019-02-18T02:38:16.414Z,66.10
2019-02-18T02:40:43.813Z,66.10
2019-02-18T02:43:11.212Z,66.10
2019-02-18T02:45:38.739Z,66.27
2019-02-18T02:48:06.126Z,66.35
2019-02-18T02:50:33.546Z,66.21
2019-02-18T02:53:00.935Z,66.21
2019-02-18T02:55:28.527Z,66.11
2019-02-18T02:57:56.091Z,66.19
2019-02-18T03:00:23.492Z,66.62
2019-02-18T03:02:50.922Z,67.01
2019-02-18T03:05:18.323Z,67.06
2019-02-18T03:07:45.743Z,67.04
2019-02-18T03:10:13.144Z,67.16
2019-02-18T03:12:40.534Z,67.27
2019-02-18T03:15:09.297Z,67.48
2019-02-18T03:17:36.727Z,67.47
2019-02-18T03:20:04.132Z,67.48
2019-02-18T03:22:31.572Z,67.23
2019-02-18T03:25:19.545Z,67.01
2019-02-18T03:27:47.050Z,67.03
2019-02-18T03:33:16.873Z,67.72
2019-02-18T03:35:44.301Z,67.45
2019-02-18T03:38:11.683Z,67.30
2019-02-18T03:40:39.091Z,67.41
2019-02-18T03:43:06.544Z,67.38
2019-02-18T03:45:34.029Z,67.53
2019-02-18T03:48:01.458Z,67.57
2019-02-18T03:50:28.870Z,67.44
2019-02-18T03:52:56.308Z,67.44
2019-02-18T03:55:23.710Z,67.40
2019-02-18T03:57:51.147Z,67.27
2019-02-18T04:00:18.666Z,66.96
2019-02-18T04:02:46.070Z,66.98
2019-02-18T04:05:13.686Z,67.25
2019-02-18T04:07:41.393Z,67.58
2019-02-18T04:10:09.538Z,67.75
2019-02-18T04:12:37.253Z,67.97
2019-02-18T04:15:12.072Z,67.94
2019-02-18T04:17:39.483Z,67.79
2019-02-18T04:20:06.903Z,67.91
2019-02-18T04:22:34.309Z,67.85
2019-02-18T04:25:01.745Z,67.69
2019-02-18T04:27:29.176Z,67.78
2019-02-18T04:29:56.568Z,67.76
2019-02-18T04:32:24.001Z,67.95
2019-02-18T04:34:51.404Z,68.04
2019-02-18T04:37:18.954Z,68.06
2019-02-18T04:39:46.388Z,67.99
2019-02-18T04:42:13.818Z,67.84
2019-02-18T04:44:41.203Z,67.88
2019-02-18T04:47:08.614Z,67.98
2019-02-18T04:49:36.017Z,68.10
2019-02-18T04:52:03.462Z,68.37
2019-02-18T04:54:30.879Z,68.53
2019-02-18T04:56:58.281Z,68.60
2019-02-18T04:59:25.725Z,68.76
2019-02-18T05:01:53.120Z,68.71
2019-02-18T05:04:20.629Z,68.86
2019-02-18T05:06:48.020Z,68.66
2019-02-18T05:09:15.419Z,68.39
2019-02-18T05:11:42.820Z,68.40
2019-02-18T05:14:10.231Z,68.41
2019-02-18T05:16:37.628Z,68.43
2019-02-18T05:19:05.061Z,68.31
2019-02-18T05:21:32.601Z,68.37
2019-02-18T05:24:00.082Z,68.61
2019-02-18T05:26:27.503Z,68.73
2019-02-18T05:28:54.933Z,68.70
2019-02-18T05:31:22.318Z,68.66
2019-02-18T05:33:49.793Z,68.89
2019-02-18T05:36:17.211Z,68.95
2019-02-18T05:38:44.625Z,69.02
2019-02-18T05:41:12.123Z,69.00
2019-02-18T05:43:39.540Z,69.03
2019-02-18T05:46:08.708Z,68.94
2019-02-18T05:48:34.387Z,68.90
2019-02-18T05:51:02.395Z,68.97
2019-02-18T05:53:30.086Z,69.28
2019-02-18T05:55:57.648Z,69.42
2019-02-18T05:58:25.071Z,69.54
2019-02-18T06:00:52.535Z,69.71
2019-02-18T06:03:20.010Z,69.94
2019-02-18T06:05:47.669Z,70.02
2019-02-18T06:08:15.070Z,70.03
2019-02-18T06:10:42.631Z,69.96
2019-02-18T06:13:10.048Z,69.77
2019-02-18T06:15:37.439Z,69.81
2019-02-18T06:18:04.857Z,69.61
2019-02-18T06:20:32.250Z,69.62
2019-02-18T06:22:59.722Z,69.61
2019-02-18T06:25:27.116Z,69.64
2019-02-18T06:27:54.549Z,69.67
2019-02-18T06:30:21.954Z,69.54
2019-02-18T06:32:49.385Z,69.58
2019-02-18T06:35:16.797Z,69.88
2019-02-18T06:37:44.217Z,70.04
2019-02-18T06:40:11.688Z,70.03
2019-02-18T06:42:39.099Z,69.91
2019-02-18T06:45:06.824Z,69.68
2019-02-18T06:47:34.321Z,69.63
2019-02-18T06:50:01.758Z,69.60
2019-02-18T06:52:29.230Z,69.34
2019-02-18T06:54:56.615Z,68.48
2019-02-18T06:57:40.064Z,67.16
2019-02-18T07:00:07.521Z,65.96
2019-02-18T07:02:35.284Z,65.14
2019-02-18T07:05:19.725Z,64.75
2019-02-18T07:07:47.157Z,63.77
2019-02-18T07:10:14.644Z,62.71
2019-02-18T07:12:42.266Z,61.55
2019-02-18T07:15:09.669Z,61.60
2019-02-18T07:17:37.236Z,60.29
2019-02-18T07:22:42.043Z,57.52
2019-02-18T07:25:09.447Z,56.50
2019-02-18T07:27:37.184Z,55.44
2019-02-18T07:30:04.836Z,54.25
2019-02-18T07:32:32.235Z,53.15
2019-02-18T07:34:59.645Z,53.06
2019-02-18T07:37:28.104Z,54.18
2019-02-18T07:40:01.615Z,54.84
2019-02-18T07:42:22.989Z,53.92
2019-02-18T07:44:50.402Z,52.26
2019-02-18T07:47:17.870Z,50.43
2019-02-18T07:49:45.339Z,49.77
2019-02-18T07:52:12.901Z,49.16
2019-02-18T07:54:40.477Z,48.06
2019-02-18T07:57:07.920Z,46.98
2019-02-18T07:59:35.349Z,46.46
2019-02-18T08:02:02.786Z,46.04
2019-02-18T08:04:30.199Z,45.50
2019-02-18T08:06:57.789Z,44.93
2019-02-18T08:09:25.214Z,45.05
2019-02-18T08:11:52.642Z,45.51
2019-02-18T08:14:20.211Z,46.00
2019-02-18T08:16:47.698Z,45.50
2019-02-18T08:19:15.750Z,44.75
2019-02-18T08:21:42.554Z,43.78
2019-02-18T08:24:09.957Z,43.12
2019-02-18T08:26:37.592Z,42.55
2019-02-18T08:29:04.987Z,41.78
2019-02-18T08:31:32.407Z,41.61
2019-02-18T08:33:59.823Z,40.84
2019-02-18T08:36:27.441Z,41.80
2019-02-18T08:38:54.998Z,42.05
2019-02-18T08:41:22.411Z,42.13
2019-02-18T08:43:49.896Z,42.58
2019-02-18T08:46:19.100Z,42.92
2019-02-18T08:48:46.505Z,43.22
2019-02-18T08:51:13.977Z,43.59
2019-02-18T08:53:41.414Z,44.37
2019-02-18T08:56:09.161Z,44.94
2019-02-18T08:58:36.598Z,45.39
2019-02-18T09:01:04.247Z,44.39
2019-02-18T09:03:31.648Z,42.73
2019-02-18T09:05:59.089Z,41.55
2019-02-18T09:08:26.118Z,40.36
2019-02-18T09:10:54.183Z,39.60
2019-02-18T09:13:21.611Z,38.88
2019-02-18T09:15:52.966Z,37.93
2019-02-18T09:18:16.250Z,37.17
2019-02-18T09:20:43.671Z,36.49
2019-02-18T09:23:13.526Z,36.31
2019-02-18T09:25:43.435Z,36.17
2019-02-18T09:28:08.586Z,35.94
2019-02-18T09:30:35.616Z,35.92
2019-02-18T09:33:03.015Z,35.85
2019-02-18T09:35:30.453Z,35.59
2019-02-18T09:37:57.876Z,35.68
2019-02-18T09:40:25.555Z,35.33
2019-02-18T09:42:53.081Z,34.69
2019-02-18T09:45:20.573Z,34.08
2019-02-18T09:47:47.994Z,33.85
2019-02-18T09:50:15.462Z,33.88
2019-02-18T09:52:42.881Z,33.79
2019-02-18T09:55:10.338Z,33.62
2019-02-18T09:57:37.752Z,33.29
2019-02-18T10:00:06.694Z,33.24
2019-02-18T10:02:34.124Z,33.46
2019-02-18T10:05:01.829Z,33.50
2019-02-18T10:07:29.900Z,33.75
2019-02-18T10:09:57.619Z,32.96
2019-02-18T10:12:25.143Z,32.47
2019-02-18T10:14:52.555Z,31.87
2019-02-18T10:17:20.047Z,31.80
2019-02-18T10:19:47.882Z,31.95
2019-02-18T10:22:15.303Z,31.69
2019-02-18T10:24:50.721Z,31.50
2019-02-18T10:27:10.662Z,30.87
2019-02-18T10:29:38.268Z,30.63
2019-02-18T10:32:05.308Z,30.41
2019-02-18T10:34:32.291Z,30.45
2019-02-18T10:36:59.322Z,30.47
2019-02-18T10:39:26.294Z,30.54
2019-02-18T10:41:53.251Z,31.04
2019-02-18T10:44:20.340Z,31.36
2019-02-18T10:46:47.274Z,31.27
2019-02-18T10:49:19.803Z,30.88
2019-02-18T10:51:42.184Z,30.83
2019-02-18T10:54:09.608Z,30.83
2019-02-18T10:56:37.085Z,31.28
2019-02-18T10:59:04.619Z,31.43
2019-02-18T11:01:32.089Z,31.34
2019-02-18T11:03:59.619Z,31.06
2019-02-18T11:06:27.249Z,31.19
2019-02-18T11:08:55.386Z,31.08
2019-02-18T11:11:22.799Z,30.77
2019-02-18T11:13:50.242Z,30.46
2019-02-18T11:16:17.675Z,30.14
2019-02-18T11:18:45.166Z,29.71
2019-02-18T11:21:12.138Z,29.11
2019-02-18T11:23:39.081Z,29.04
2019-02-18T11:26:06.014Z,28.99
2019-02-18T11:28:33.096Z,28.34
2019-02-18T11:31:00.173Z,27.92
2019-02-18T11:33:27.125Z,27.71
2019-02-18T11:35:54.606Z,27.84
2019-02-18T11:38:22.140Z,27.77
2019-02-18T11:40:49.577Z,27.38
2019-02-18T11:43:17.074Z,26.98
2019-02-18T11:45:44.049Z,26.74
2019-02-18T11:48:11.658Z,26.31
2019-02-18T11:50:39.069Z,25.71
2019-02-18T11:53:06.543Z,25.29
2019-02-18T11:55:33.496Z,24.39
2019-02-18T11:58:01.727Z,24.57
2019-02-18T12:00:29.141Z,24.76
2019-02-18T12:03:03.132Z,25.08
2019-02-18T12:05:25.010Z,25.57
2019-02-18T12:07:52.468Z,24.89
2019-02-18T12:10:19.934Z,24.67
2019-02-18T12:12:47.358Z,23.78
2019-02-18T12:15:14.837Z,23.72
2019-02-18T12:17:42.682Z,24.48
2019-02-18T12:20:10.909Z,23.68
2019-02-18T12:22:38.439Z,23.47
2019-02-18T12:25:05.408Z,24.35
2019-02-18T12:27:32.385Z,24.11
2019-02-18T12:29:59.458Z,23.61
2019-02-18T12:32:26.961Z,22.19
2019-02-18T12:34:54.492Z,22.13
2019-02-18T12:37:22.624Z,22.28
2019-02-18T12:39:50.243Z,21.63
2019-02-18T12:42:17.778Z,21.32
2019-02-18T12:44:45.243Z,21.01
2019-02-18T12:47:12.821Z,20.71
2019-02-18T12:49:40.330Z,21.14
2019-02-18T12:52:07.735Z,21.20
2019-02-18T12:54:35.169Z,20.69
2019-02-18T12:57:02.593Z,21.74
2019-02-18T12:59:30.683Z,22.56
2019-02-18T13:01:57.746Z,22.97
2019-02-18T13:04:25.684Z,23.41
2019-02-18T13:06:53.281Z,22.30
2019-02-18T13:09:21.353Z,21.73
2019-02-18T13:11:58.495Z,21.21
2019-02-18T13:14:16.267Z,20.97
2019-02-18T13:16:43.714Z,22.05
2019-02-18T13:19:11.164Z,21.58
2019-02-18T13:21:38.634Z,21.03
2019-02-18T13:24:06.161Z,20.74
2019-02-18T13:26:35.177Z,20.53
2019-02-18T13:29:02.737Z,19.94
2019-02-18T13:31:30.166Z,18.88
2019-02-18T13:33:57.759Z,19.04
2019-02-18T13:36:25.183Z,19.75
2019-02-18T13:38:52.671Z,20.09
2019-02-18T13:41:20.123Z,18.42
2019-02-18T13:43:47.101Z,17.31
2019-02-18T13:46:14.225Z,18.19
2019-02-18T13:48:41.254Z,18.76
2019-02-18T13:51:08.259Z,17.55
2019-02-18T13:53:35.367Z,16.42
2019-02-18T13:56:02.330Z,16.82
2019-02-18T13:58:29.295Z,17.22
2019-02-18T14:00:56.266Z,18.63
2019-02-18T14:03:23.263Z,19.13
2019-02-18T14:05:50.227Z,17.08
2019-02-18T14:08:17.174Z,16.08
2019-02-18T14:10:44.142Z,15.58
2019-02-18T14:13:11.519Z,15.58
2019-02-18T14:15:38.491Z,16.21
2019-02-18T14:18:05.564Z,17.05
2019-02-18T14:20:32.536Z,17.14
2019-02-18T14:22:59.507Z,16.69
2019-02-18T14:25:26.478Z,17.73
2019-02-18T14:27:53.869Z,18.04
2019-02-18T14:30:21.292Z,16.34
2019-02-18T14:32:48.772Z,15.76
2019-02-18T14:35:16.228Z,15.54
2019-02-18T14:37:43.181Z,14.96
2019-02-18T14:40:10.157Z,14.83
2019-02-18T14:42:37.149Z,15.14
2019-02-18T14:45:04.252Z,15.24
2019-02-18T14:47:31.678Z,14.33
2019-02-18T14:49:59.164Z,13.56
2019-02-18T14:52:26.107Z,13.20
2019-02-18T14:54:53.520Z,12.95
2019-02-18T14:57:20.930Z,13.40
2019-02-18T14:59:48.547Z,12.70
2019-02-18T15:02:16.089Z,12.56
2019-02-18T15:04:43.523Z,14.45
2019-02-18T15:07:11.816Z,15.65
2019-02-18T15:09:39.229Z,14.79
2019-02-18T15:12:07.091Z,14.14
2019-02-18T15:14:34.084Z,13.42
2019-02-18T15:17:01.542Z,14.40
2019-02-18T15:19:28.492Z,14.03
2019-02-18T15:21:55.915Z,13.97
2019-02-18T15:24:23.711Z,13.97
2019-02-18T15:26:51.177Z,13.81
2019-02-18T15:29:18.591Z,14.20
2019-02-18T15:31:46.123Z,13.94
2019-02-18T15:34:13.572Z,14.58
2019-02-18T15:36:40.975Z,15.40
2019-02-18T15:39:08.664Z,15.36
2019-02-18T15:41:36.153Z,15.48
2019-02-18T15:44:03.574Z,16.11
2019-02-18T15:46:31.031Z,16.28
2019-02-18T15:48:58.480Z,16.46
2019-02-18T15:51:26.008Z,16.76
2019-02-18T15:53:53.596Z,17.08
2019-02-18T15:56:21.068Z,16.16
2019-02-18T15:58:48.511Z,16.12
2019-02-18T16:01:15.689Z,16.60
2019-02-18T16:03:42.716Z,16.71
2019-02-18T16:06:09.807Z,17.70
2019-02-18T16:08:37.261Z,18.38
2019-02-18T16:11:04.781Z,18.25
2019-02-18T16:13:32.243Z,18.48
2019-02-18T16:15:59.296Z,18.52
2019-02-18T16:18:26.397Z,19.03
2019-02-18T16:20:53.490Z,19.58
2019-02-18T16:23:20.670Z,19.97
2019-02-18T16:25:47.656Z,19.88
2019-02-18T16:28:14.607Z,20.21
2019-02-18T16:30:41.548Z,21.36
2019-02-18T16:33:09.054Z,22.29
2019-02-18T16:35:36.475Z,23.89
2019-02-18T16:38:04.057Z,28.42
2019-02-18T16:40:31.500Z,32.29
2019-02-18T16:42:59.621Z,34.72
2019-02-18T16:45:26.607Z,36.21
2019-02-18T16:47:54.206Z,37.57
2019-02-18T16:50:21.654Z,38.17
2019-02-18T16:52:49.316Z,38.71
2019-02-18T16:55:16.730Z,39.34
2019-02-18T16:57:44.280Z,39.75
2019-02-18T17:00:11.691Z,39.97
2019-02-18T17:02:39.112Z,40.43
2019-02-18T17:05:06.598Z,40.59
2019-02-18T17:07:34.009Z,40.80
2019-02-18T17:10:01.521Z,40.83
2019-02-18T17:12:29.143Z,41.48
2019-02-18T17:14:56.572Z,41.86
2019-02-18T17:17:24.011Z,42.04
2019-02-18T17:19:51.409Z,42.69
2019-02-18T17:22:18.815Z,42.93
2019-02-18T17:24:46.239Z,43.20
2019-02-18T17:27:13.728Z,43.06
2019-02-18T17:29:41.382Z,43.21
2019-02-18T17:32:08.867Z,43.57
2019-02-18T17:34:36.371Z,44.23
2019-02-18T17:37:03.882Z,44.82
2019-02-18T17:39:31.613Z,45.08
2019-02-18T17:41:59.029Z,45.58
2019-02-18T17:44:26.499Z,46.82
2019-02-18T17:46:53.987Z,47.47
2019-02-18T17:49:21.401Z,48.12
2019-02-18T17:51:48.799Z,48.32
2019-02-18T17:54:16.243Z,48.74
2019-02-18T17:56:43.707Z,48.54
2019-02-18T17:59:11.096Z,48.73
2019-02-18T18:01:38.505Z,49.13
2019-02-18T18:04:05.981Z,49.33
2019-02-18T18:06:33.372Z,49.91
2019-02-18T18:09:00.796Z,49.88
2019-02-18T18:11:28.399Z,49.97
2019-02-18T18:13:56.927Z,50.00
2019-02-18T18:16:24.328Z,50.14
2019-02-18T18:18:51.729Z,50.59
2019-02-18T18:21:19.839Z,50.65
2019-02-18T18:23:47.440Z,50.54
2019-02-18T18:26:14.872Z,50.45
2019-02-18T18:28:42.369Z,50.57
2019-02-18T18:31:09.864Z,50.92
2019-02-18T18:33:37.297Z,51.03
2019-02-18T18:36:04.714Z,50.96
2019-02-18T18:38:32.251Z,50.99
2019-02-18T18:40:59.810Z,50.68
2019-02-18T18:43:33.548Z,50.56
2019-02-18T18:45:54.703Z,50.62
2019-02-18T18:48:22.103Z,51.04
2019-02-18T18:50:49.554Z,51.15
2019-02-18T18:53:17.028Z,51.08
2019-02-18T18:55:44.451Z,50.93
2019-02-18T18:58:11.848Z,50.68
2019-02-18T19:00:39.257Z,50.59
2019-02-18T19:03:06.702Z,50.62
2019-02-18T19:05:34.136Z,50.58
2019-02-18T19:08:01.725Z,50.72
2019-02-18T19:10:30.443Z,50.74
2019-02-18T19:12:57.909Z,50.65
2019-02-18T19:15:25.325Z,50.80
2019-02-18T19:17:52.894Z,51.05
2019-02-18T19:20:20.453Z,51.13
2019-02-18T19:22:47.881Z,50.93
2019-02-18T19:25:15.299Z,51.01
2019-02-18T19:27:42.756Z,50.87
2019-02-18T19:30:17.892Z,50.88
2019-02-18T19:32:45.317Z,50.80
2019-02-18T19:35:12.788Z,51.08
2019-02-18T19:37:40.263Z,51.26
2019-02-18T19:40:10.287Z,51.22
2019-02-18T19:42:37.721Z,51.34
2019-02-18T19:45:05.163Z,51.29
2019-02-18T19:47:32.567Z,51.60
2019-02-18T19:50:00.336Z,51.76
2019-02-18T19:52:27.682Z,51.62
2019-02-18T19:54:55.091Z,51.92
2019-02-18T19:57:22.535Z,51.85
2019-02-18T19:59:50.045Z,51.50
2019-02-18T20:02:17.466Z,51.50
2019-02-18T20:04:44.909Z,51.76
2019-02-18T20:07:12.352Z,51.74
2019-02-18T20:09:39.846Z,51.60
2019-02-18T20:12:07.267Z,51.43
2019-02-18T20:14:34.765Z,51.51
2019-02-18T20:17:02.199Z,51.69
2019-02-18T20:19:29.614Z,51.80
2019-02-18T20:21:57.059Z,51.83
2019-02-18T20:24:24.475Z,52.00
2019-02-18T20:26:51.921Z,52.31
2019-02-18T20:29:19.330Z,52.70
2019-02-18T20:31:46.791Z,52.98
2019-02-18T20:34:14.179Z,53.07
2019-02-18T20:36:41.858Z,52.91
2019-02-18T20:39:09.297Z,53.22
2019-02-18T20:41:36.754Z,53.81
2019-02-18T20:44:07.453Z,54.23
2019-02-18T20:46:31.665Z,54.27
2019-02-18T20:48:59.087Z,54.19
2019-02-18T20:51:26.482Z,54.21
2019-02-18T20:53:54.270Z,54.00
2019-02-18T20:56:21.735Z,54.09
2019-02-18T20:58:49.264Z,54.23
2019-02-18T21:01:16.675Z,54.65
2019-02-18T21:03:44.082Z,54.73
2019-02-18T21:06:11.551Z,54.86
2019-02-18T21:08:38.989Z,54.77
2019-02-18T21:11:06.412Z,54.56
2019-02-18T21:13:33.909Z,54.34
2019-02-18T21:16:01.343Z,54.27
2019-02-18T21:18:29.561Z,54.33
2019-02-18T21:20:57.041Z,54.11
2019-02-18T21:23:24.489Z,54.10
2019-02-18T21:25:51.924Z,54.35
2019-02-18T21:28:19.355Z,54.80
2019-02-18T21:30:46.791Z,54.98
2019-02-18T21:33:14.304Z,55.07
2019-02-18T21:35:41.740Z,55.13
2019-02-18T21:38:09.165Z,55.29
2019-02-18T21:40:36.577Z,55.39
2019-02-18T21:43:04.225Z,55.53
2019-02-18T21:45:31.640Z,55.59
2019-02-18T21:47:59.054Z,55.66
2019-02-18T21:50:26.503Z,55.78
2019-02-18T21:52:53.894Z,55.87
2019-02-18T21:55:21.295Z,56.10
2019-02-18T21:57:48.874Z,56.44
2019-02-18T22:00:18.771Z,56.46
2019-02-18T22:02:46.333Z,56.72
2019-02-18T22:05:13.759Z,56.91
2019-02-18T22:07:41.885Z,56.98
2019-02-18T22:10:09.274Z,57.30
2019-02-18T22:12:36.744Z,57.54
2019-02-18T22:15:04.346Z,57.67
2019-02-18T22:17:32.490Z,57.61
2019-02-18T22:19:59.941Z,57.62
2019-02-18T22:22:27.336Z,57.29
2019-02-18T22:24:54.742Z,56.96
2019-02-18T22:27:22.252Z,56.96
2019-02-18T22:29:49.666Z,56.80
2019-02-18T22:32:17.101Z,56.42
2019-02-18T22:34:44.624Z,56.40
2019-02-18T22:37:12.015Z,56.64
2019-02-18T22:39:39.420Z,56.66
2019-02-18T22:42:07.181Z,56.79
2019-02-18T22:44:41.777Z,56.94
2019-02-18T22:47:02.321Z,57.23
2019-02-18T22:49:29.815Z,57.31
2019-02-18T22:51:57.211Z,57.21
2019-02-18T22:54:24.858Z,57.20
2019-02-18T22:56:52.262Z,57.23
2019-02-18T22:59:19.707Z,57.14
2019-02-18T23:01:47.173Z,56.92
2019-02-18T23:04:14.561Z,56.81
2019-02-18T23:06:41.953Z,56.58
2019-02-18T23:09:09.350Z,56.46
2019-02-18T23:11:36.950Z,56.38
2019-02-18T23:14:04.333Z,56.41
2019-02-18T23:16:31.742Z,56.45
2019-02-18T23:18:59.147Z,56.58
2019-02-18T23:21:26.655Z,56.87
2019-02-18T23:23:54.051Z,57.20
2019-02-18T23:26:21.502Z,57.34
2019-02-18T23:28:48.916Z,57.34
2019-02-18T23:31:16.447Z,57.57
2019-02-18T23:33:43.864Z,57.70
2019-02-18T23:36:11.262Z,57.74
2019-02-18T23:38:38.658Z,57.91
2019-02-18T23:41:06.282Z,57.71
2019-02-18T23:43:33.689Z,57.67
2019-02-18T23:46:01.132Z,57.91
2019-02-18T23:48:28.543Z,57.92
2019-02-18T23:50:56.211Z,57.68
2019-02-18T23:53:23.855Z,57.68
2019-02-18T23:55:51.351Z,57.80
2019-02-18T23:58:18.763Z,58.15
